Flight Track Log - Related Links

Times and Time Zones

All times are in EST time to prevent confusion due to time zone crossing. See the AFL150 flight status page for this flight to view local times or setup timezone preferences in your user account.

Time Position Orientation Groundspeed Altitude Reporting Facility
EST Latitude Longitude Course Direction KTS MPH feet Rate Location/Type
Sun 04:42:00 AM 56.2414 37.0810 318° Northwest  Level FlightAware Approximate
Sun 04:43:00 AM 56.3321 36.9337 318° Northwest  Level FlightAware Approximate
Sun 04:44:00 AM 56.4225 36.7857 318° Northwest  Level FlightAware Approximate
Sun 04:45:00 AM 56.5128 36.6370 318° Northwest  Level FlightAware Approximate
Sun 04:46:00 AM 56.6029 36.4876 318° Northwest  Level FlightAware Approximate
Sun 04:47:00 AM 56.6928 36.3375 318° Northwest  Level FlightAware Approximate
Sun 04:48:00 AM 56.7826 36.1866 317° Northwest  Level FlightAware Approximate
Sun 04:49:00 AM 56.8721 36.0351 317° Northwest  Level FlightAware Approximate
Sun 04:50:00 AM 56.9615 35.8828 317° Northwest  Level FlightAware Approximate
Sun 04:51:00 AM 57.0507 35.7298 317° Northwest  Level FlightAware Approximate
Sun 04:52:00 AM 57.1397 35.5760 317° Northwest  Level FlightAware Approximate
Sun 04:53:00 AM 57.2285 35.4215 317° Northwest  Level FlightAware Approximate
Sun 04:54:00 AM 57.3171 35.2663 317° Northwest  Level FlightAware Approximate
Sun 04:55:00 AM 57.4055 35.1102 316° Northwest  Level FlightAware Approximate
Sun 04:56:00 AM 57.4938 34.9535 316° Northwest  Level FlightAware Approximate
Sun 04:57:00 AM 57.5818 34.7960 316° Northwest  Level FlightAware Approximate
Sun 04:58:00 AM 57.6230 34.7215 315° West  Level FlightAware Approximate
Sun 04:59:00 AM 57.7091 34.5598 315° West  Level FlightAware Approximate
Sun 05:00:00 AM 57.7950 34.3972 315° West  Level FlightAware Approximate
Sun 05:01:00 AM 57.8806 34.2339 315° West  Level FlightAware Approximate
Sun 05:02:00 AM 57.9661 34.0698 315° West  Level FlightAware Approximate
Sun 05:03:00 AM 58.0514 33.9050 314° West  Level FlightAware Approximate
Sun 05:04:00 AM 58.1364 33.7393 314° West  Level FlightAware Approximate
Sun 05:05:00 AM 58.2212 33.5728 314° West  Level FlightAware Approximate
Sun 05:06:00 AM 58.3059 33.4056 314° West  Level FlightAware Approximate
Sun 05:07:00 AM 58.3902 33.2375 314° West  Level FlightAware Approximate
Sun 05:08:00 AM 58.4744 33.0687 314° West  Level FlightAware Approximate
Sun 05:09:00 AM 58.5584 32.8990 314° West  Level FlightAware Approximate
Sun 05:10:00 AM 58.6421 32.7286 313° West  Level FlightAware Approximate
Sun 05:11:00 AM 58.7256 32.5573 313° West  Level FlightAware Approximate
Sun 05:12:00 AM 58.8088 32.3851 313° West  Level FlightAware Approximate
Sun 05:13:00 AM 58.8919 32.2122 313° West  Level FlightAware Approximate
Sun 05:14:00 AM 58.9747 32.0384 313° West  Level FlightAware Approximate
Sun 05:15:00 AM 59.0573 31.8638 313° West  Level FlightAware Approximate
Sun 05:16:00 AM 59.1396 31.6884 312° West  Level FlightAware Approximate
Sun 05:17:00 AM 59.2217 31.5121 312° West  Level FlightAware Approximate
Sun 05:18:00 AM 59.3036 31.3349 312° West  Level FlightAware Approximate
Sun 05:19:00 AM 59.3852 31.1569 312° West  Level FlightAware Approximate
Sun 05:20:00 AM 59.4665 30.9780 312° West  Level FlightAware Approximate
Sun 05:21:00 AM 59.5477 30.7983 312° West  Level FlightAware Approximate
Sun 05:22:00 AM 59.6286 30.6177 312° West  Level FlightAware Approximate
Sun 05:23:00 AM 59.7092 30.4363 311° West  Level FlightAware Approximate
Sun 05:24:00 AM 59.7896 30.2539 311° West  Level FlightAware Approximate
Sun 05:25:00 AM 59.8697 30.0707 311° West  Level FlightAware Approximate
Sun 05:26:00 AM 59.9496 29.8866 311° West  Level FlightAware Approximate
Sun 05:27:00 AM 60.0292 29.7017 311° West  Level FlightAware Approximate
Sun 05:28:00 AM 60.1085 29.5158 311° West  Level FlightAware Approximate
Sun 05:29:00 AM 60.1876 29.3290 310° West  Level FlightAware Approximate
Sun 05:30:00 AM 60.2664 29.1413 310° West  Level FlightAware Approximate
Sun 05:31:00 AM 60.3450 28.9527 310° West  Level FlightAware Approximate
Sun 05:32:00 AM 60.4233 28.7633 310° West  Level FlightAware Approximate
Sun 05:33:00 AM 60.5013 28.5729 310° West  Level FlightAware Approximate
Sun 05:34:00 AM 60.5790 28.3815 310° West  Level FlightAware Approximate
Sun 05:35:00 AM 60.6565 28.1893 309° West  Level FlightAware Approximate
Sun 05:36:00 AM 60.7337 27.9961 309° West  Level FlightAware Approximate
Sun 05:37:00 AM 60.8106 27.8020 309° West  Level FlightAware Approximate
Sun 05:38:00 AM 60.8873 27.6070 309° West  Level FlightAware Approximate
Sun 05:39:00 AM 60.9636 27.4111 309° West  Level FlightAware Approximate
Sun 05:40:00 AM 61.0397 27.2141 309° West  Level FlightAware Approximate
Sun 05:41:00 AM 61.1155 27.0163 308° West  Level FlightAware Approximate
Sun 05:42:00 AM 61.1910 26.8175 308° West  Level FlightAware Approximate
Sun 05:43:00 AM 61.2662 26.6178 308° West  Level FlightAware Approximate
Sun 05:44:00 AM 61.3411 26.4170 308° West  Level FlightAware Approximate
Sun 05:45:00 AM 61.4157 26.2154 308° West  Level FlightAware Approximate
Sun 05:46:00 AM 61.4900 26.0127 308° West  Level FlightAware Approximate
Sun 05:47:00 AM 61.5640 25.8091 307° West  Level FlightAware Approximate
Sun 05:48:00 AM 61.6377 25.6046 307° West  Level FlightAware Approximate
Sun 05:49:00 AM 61.7111 25.3990 307° West  Level FlightAware Approximate
Sun 05:50:00 AM 61.7841 25.1925 307° West  Level FlightAware Approximate
Sun 05:51:00 AM 61.8569 24.9849 307° West  Level FlightAware Approximate
Sun 05:52:00 AM 61.9292 24.7763 306° West  Level FlightAware Approximate
Sun 05:53:00 AM 62.0013 24.5666 306° West  Level FlightAware Approximate
Sun 05:54:00 AM 62.0730 24.3560 306° West  Level FlightAware Approximate
Sun 05:55:00 AM 62.1444 24.1444 306° West  Level FlightAware Approximate
Sun 05:56:00 AM 62.2155 23.9318 306° West  Level FlightAware Approximate
Sun 05:57:00 AM 62.2863 23.7182 306° West  Level FlightAware Approximate
Sun 05:58:00 AM 62.3567 23.5036 305° West  Level FlightAware Approximate
Sun 05:59:00 AM 62.4268 23.2880 305° West  Level FlightAware Approximate
Sun 06:00:00 AM 62.4966 23.0713 305° West  Level FlightAware Approximate
Sun 06:01:00 AM 62.5660 22.8537 305° West  Level FlightAware Approximate
Sun 06:02:00 AM 62.6351 22.6350 305° West  Level FlightAware Approximate
Sun 06:03:00 AM 62.7038 22.4153 304° West  Level FlightAware Approximate
Sun 06:04:00 AM 62.7722 22.1946 304° West  Level FlightAware Approximate
Sun 06:05:00 AM 62.8403 21.9729 304° West  Level FlightAware Approximate
Sun 06:06:00 AM 62.9080 21.7502 304° West  Level FlightAware Approximate
Sun 06:07:00 AM 62.9753 21.5264 304° West  Level FlightAware Approximate
Sun 06:08:00 AM 63.0423 21.3016 303° West  Level FlightAware Approximate
Sun 06:09:00 AM 63.1089 21.0757 303° West  Level FlightAware Approximate
Sun 06:10:00 AM 63.1752 20.8489 303° West  Level FlightAware Approximate
Sun 06:11:00 AM 63.2411 20.6209 303° West  Level FlightAware Approximate
Sun 06:12:00 AM 63.3067 20.3920 303° West  Level FlightAware Approximate
Sun 06:13:00 AM 63.3718 20.1620 302° West  Level FlightAware Approximate
Sun 06:14:00 AM 63.4366 19.9309 302° West  Level FlightAware Approximate
Sun 06:15:00 AM 63.5011 19.6989 302° West  Level FlightAware Approximate
Sun 06:16:00 AM 63.5651 19.4657 302° West  Level FlightAware Approximate
Sun 06:17:00 AM 63.6288 19.2315 302° West  Level FlightAware Approximate
Sun 06:18:00 AM 63.6921 18.9963 301° West  Level FlightAware Approximate
Sun 06:19:00 AM 63.7550 18.7600 301° West  Level FlightAware Approximate
Sun 06:20:00 AM 63.8175 18.5227 301° West  Level FlightAware Approximate
Sun 06:21:00 AM 63.8796 18.2843 301° West  Level FlightAware Approximate
Sun 06:22:00 AM 63.9414 18.0449 300° West  Level FlightAware Approximate
Sun 06:23:00 AM 64.0027 17.8044 300° West  Level FlightAware Approximate
Sun 06:24:00 AM 64.0637 17.5629 300° West  Level FlightAware Approximate
Sun 06:25:00 AM 64.1242 17.3202 300° West  Level FlightAware Approximate
Sun 06:26:00 AM 64.1843 17.0766 300° West  Level FlightAware Approximate
Sun 06:27:00 AM 64.2440 16.8319 299° West  Level FlightAware Approximate
Sun 06:28:00 AM 64.3034 16.5861 299° West  Level FlightAware Approximate
Sun 06:29:00 AM 64.3626 16.3397 299° West  Level FlightAware Approximate
Sun 06:30:00 AM 64.4214 16.0922 299° West  Level FlightAware Approximate
Sun 06:31:00 AM 64.4797 15.8437 299° West  Level FlightAware Approximate
Sun 06:32:00 AM 64.5377 15.5941 298° West  Level FlightAware Approximate
Sun 06:33:00 AM 64.5952 15.3434 298° West  Level FlightAware Approximate
Sun 06:34:00 AM 64.6523 15.0917 298° West  Level FlightAware Approximate
Sun 06:35:00 AM 64.7090 14.8389 298° West  Level FlightAware Approximate
Sun 06:36:00 AM 64.7653 14.5851 298° West  Level FlightAware Approximate
Sun 06:37:00 AM 64.8211 14.3302 297° West  Level FlightAware Approximate
Sun 06:38:00 AM 64.8764 14.0743 297° West  Level FlightAware Approximate
Sun 06:39:00 AM 64.9314 13.8173 297° West  Level FlightAware Approximate
Sun 06:40:00 AM 64.9858 13.5592 297° West  Level FlightAware Approximate
Sun 06:41:00 AM 65.0399 13.3001 296° West  Level FlightAware Approximate
Sun 06:42:00 AM 65.0935 13.0400 296° West  Level FlightAware Approximate
Sun 06:43:00 AM 65.1466 12.7788 296° West  Level FlightAware Approximate
Sun 06:44:00 AM 65.1993 12.5166 296° West  Level FlightAware Approximate
Sun 06:45:00 AM 65.2515 12.2533 295° West  Level FlightAware Approximate
Sun 06:46:00 AM 65.3033 11.9890 295° West  Level FlightAware Approximate
Sun 06:47:00 AM 65.3546 11.7236 295° West  Level FlightAware Approximate
Sun 06:48:00 AM 65.4054 11.4573 295° West  Level FlightAware Approximate
Sun 06:49:00 AM 65.4557 11.1898 294° West  Level FlightAware Approximate
Sun 06:50:00 AM 65.5056 10.9214 294° West  Level FlightAware Approximate
Sun 06:51:00 AM 65.5550 10.6519 294° West  Level FlightAware Approximate
Sun 06:52:00 AM 65.6040 10.3815 294° West  Level FlightAware Approximate
Sun 06:53:00 AM 65.6524 10.1100 294° West  Level FlightAware Approximate
Sun 06:54:00 AM 65.7004 9.8375 293° West  Level FlightAware Approximate
Sun 06:55:00 AM 65.7478 9.5640 293° West  Level FlightAware Approximate
Sun 06:56:00 AM 65.7948 9.2894 293° West  Level FlightAware Approximate
Sun 06:57:00 AM 65.8413 9.0139 293° West  Level FlightAware Approximate
Sun 06:58:00 AM 65.8873 8.7374 292° West  Level FlightAware Approximate
Sun 06:59:00 AM 65.9328 8.4599 292° West  Level FlightAware Approximate
Sun 07:00:00 AM 65.9778 8.1814 292° West  Level FlightAware Approximate
Sun 07:01:00 AM 66.0222 7.9020 292° West  Level FlightAware Approximate
Sun 07:02:00 AM 66.0662 7.6216 291° West  Level FlightAware Approximate
Sun 07:03:00 AM 66.1097 7.3402 291° West  Level FlightAware Approximate
Sun 07:04:00 AM 66.1526 7.0578 291° West  Level FlightAware Approximate
Sun 07:05:00 AM 66.1951 6.7745 290° West  Level FlightAware Approximate
Sun 07:06:00 AM 66.2370 6.4903 290° West  Level FlightAware Approximate
Sun 07:07:00 AM 66.2784 6.2051 290° West  Level FlightAware Approximate
Sun 07:08:00 AM 66.3193 5.9189 290° West  Level FlightAware Approximate
Sun 07:09:00 AM 66.3596 5.6319 289° West  Level FlightAware Approximate
Sun 07:10:00 AM 66.3994 5.3439 289° West  Level FlightAware Approximate
Sun 07:11:00 AM 66.4387 5.0550 289° West  Level FlightAware Approximate
Sun 07:12:00 AM 66.4774 4.7653 289° West  Level FlightAware Approximate
Sun 07:13:00 AM 66.5156 4.4746 288° West  Level FlightAware Approximate
Sun 07:14:00 AM 66.5531 4.1829 288° West  Level FlightAware Approximate
Sun 07:15:00 AM 66.5900 3.8903 288° West  Level FlightAware Approximate
Sun 07:16:00 AM 66.6264 3.5968 287° West  Level FlightAware Approximate
Sun 07:17:00 AM 66.6623 3.3025 287° West  Level FlightAware Approximate
Sun 07:18:00 AM 66.6976 3.0073 287° West  Level FlightAware Approximate
Sun 07:19:00 AM 66.7323 2.7113 287° West  Level FlightAware Approximate
Sun 07:20:00 AM 66.7665 2.4145 286° West  Level FlightAware Approximate
Sun 07:21:00 AM 66.8001 2.1168 286° West  Level FlightAware Approximate
Sun 07:22:00 AM 66.8332 1.8183 286° West  Level FlightAware Approximate
Sun 07:23:00 AM 66.8656 1.5191 286° West  Level FlightAware Approximate
Sun 07:24:00 AM 66.8976 1.2190 285° West  Level FlightAware Approximate
Sun 07:25:00 AM 66.9289 0.9182 285° West  Level FlightAware Approximate
Sun 07:26:00 AM 66.9597 0.6166 285° West  Level FlightAware Approximate
Sun 07:27:00 AM 66.9899 0.3143 284° West  Level FlightAware Approximate
Sun 07:28:00 AM 67.0196 0.0112 284° West  Level FlightAware Approximate
Sun 07:29:00 AM 67.0486 -0.2927 284° West  Level FlightAware Approximate
Sun 07:30:00 AM 67.0771 -0.5972 284° West  Level FlightAware Approximate
Sun 07:31:00 AM 67.1050 -0.9025 283° West  Level FlightAware Approximate
Sun 07:32:00 AM 67.1323 -1.2084 283° West  Level FlightAware Approximate
Sun 07:33:00 AM 67.1590 -1.5151 283° West  Level FlightAware Approximate
Sun 07:34:00 AM 67.1852 -1.8224 283° West  Level FlightAware Approximate
Sun 07:35:00 AM 67.2107 -2.1304 282° West  Level FlightAware Approximate
Sun 07:36:00 AM 67.2357 -2.4390 282° West  Level FlightAware Approximate
Sun 07:37:00 AM 67.2600 -2.7483 282° West  Level FlightAware Approximate
Sun 07:38:00 AM 67.2838 -3.0581 281° West  Level FlightAware Approximate
Sun 07:39:00 AM 67.3070 -3.3686 281° West  Level FlightAware Approximate
Sun 07:40:00 AM 67.3295 -3.6797 281° West  Level FlightAware Approximate
Sun 07:41:00 AM 67.3515 -3.9914 281° West  Level FlightAware Approximate
Sun 07:42:00 AM 67.3729 -4.3036 280° West  Level FlightAware Approximate
Sun 07:43:00 AM 67.3936 -4.6164 280° West  Level FlightAware Approximate
Sun 07:44:00 AM 67.4138 -4.9297 280° West  Level FlightAware Approximate
Sun 07:45:00 AM 67.4333 -5.2435 279° West  Level FlightAware Approximate
Sun 07:46:00 AM 67.4522 -5.5578 279° West  Level FlightAware Approximate
Sun 07:47:00 AM 67.4706 -5.8727 279° West  Level FlightAware Approximate
Sun 07:48:00 AM 67.4883 -6.1880 278° West  Level FlightAware Approximate
Sun 07:49:00 AM 67.5053 -6.5037 278° West  Level FlightAware Approximate
Sun 07:50:00 AM 67.5218 -6.8200 278° West  Level FlightAware Approximate
Sun 07:51:00 AM 67.5377 -7.1366 278° West  Level FlightAware Approximate
Sun 07:52:00 AM 67.5529 -7.4537 277° West  Level FlightAware Approximate
Sun 07:53:00 AM 67.5675 -7.7712 277° West  Level FlightAware Approximate
Sun 07:54:00 AM 67.5815 -8.0890 277° West  Level FlightAware Approximate
Sun 07:55:00 AM 67.5949 -8.4072 276° West  Level FlightAware Approximate
Sun 07:56:00 AM 67.6077 -8.7258 276° West  Level FlightAware Approximate
Sun 07:57:00 AM 67.6198 -9.0447 276° West  Level FlightAware Approximate
Sun 07:58:00 AM 67.6313 -9.3639 276° West  Level FlightAware Approximate
Sun 07:59:00 AM 67.6422 -9.6835 275° West  Level FlightAware Approximate
Sun 08:00:00 AM 67.6524 -10.0033 275° West  Level FlightAware Approximate
Sun 08:01:00 AM 67.6620 -10.3234 275° West  Level FlightAware Approximate
Sun 08:02:00 AM 67.6710 -10.6437 274° West  Level FlightAware Approximate
Sun 08:03:00 AM 67.6794 -10.9643 274° West  Level FlightAware Approximate
Sun 08:04:00 AM 67.6871 -11.2851 274° West  Level FlightAware Approximate
Sun 08:05:00 AM 67.6942 -11.6061 273° West  Level FlightAware Approximate
Sun 08:06:00 AM 67.7007 -11.9272 273° West  Level FlightAware Approximate
Sun 08:07:00 AM 67.7065 -12.2486 273° West  Level FlightAware Approximate
Sun 08:08:00 AM 67.7117 -12.5701 273° West  Level FlightAware Approximate
Sun 08:09:00 AM 67.7163 -12.8917 272° West  Level FlightAware Approximate
Sun 08:10:00 AM 67.7202 -13.2135 272° West  Level FlightAware Approximate
Sun 08:11:00 AM 67.7235 -13.5353 272° West  Level FlightAware Approximate
Sun 08:12:00 AM 67.7262 -13.8573 271° West  Level FlightAware Approximate
Sun 08:13:00 AM 67.7282 -14.1793 271° West  Level FlightAware Approximate
Sun 08:14:00 AM 67.7296 -14.5013 271° West  Level FlightAware Approximate
Sun 08:15:00 AM 67.7304 -14.8234 271° West  Level FlightAware Approximate
Sun 08:16:00 AM 67.7305 -15.1454 270° West  Level FlightAware Approximate
Sun 08:17:00 AM 67.7300 -15.4675 270° West  Level FlightAware Approximate
Sun 08:18:00 AM 67.7288 -15.7896 270° West  Level FlightAware Approximate
Sun 08:19:00 AM 67.7271 -16.1116 269° West  Level FlightAware Approximate
Sun 08:20:00 AM 67.7246 -16.4336 269° West  Level FlightAware Approximate
Sun 08:21:00 AM 67.7216 -16.7554 269° West  Level FlightAware Approximate
Sun 08:22:00 AM 67.7179 -17.0772 268° West  Level FlightAware Approximate
Sun 08:23:00 AM 67.7136 -17.3989 268° West  Level FlightAware Approximate
Sun 08:24:00 AM 67.7086 -17.7205 268° West  Level FlightAware Approximate
Sun 08:25:00 AM 67.7031 -18.0419 268° West  Level FlightAware Approximate
Sun 08:26:00 AM 67.6969 -18.3631 267° West  Level FlightAware Approximate
Sun 08:27:00 AM 67.6900 -18.6842 267° West  Level FlightAware Approximate
Sun 08:28:00 AM 67.6825 -19.0051 267° West  Level FlightAware Approximate
Sun 08:29:00 AM 67.6744 -19.3258 266° West  Level FlightAware Approximate
Sun 08:30:00 AM 67.6657 -19.6462 266° West  Level FlightAware Approximate
Sun 08:31:00 AM 67.6563 -19.9664 266° West  Level FlightAware Approximate
Sun 08:32:00 AM 67.6463 -20.2863 265° West  Level FlightAware Approximate
Sun 08:33:00 AM 67.6357 -20.6059 265° West  Level FlightAware Approximate
Sun 08:34:00 AM 67.6244 -20.9253 265° West  Level FlightAware Approximate
Sun 08:35:00 AM 67.6125 -21.2443 265° West  Level FlightAware Approximate
Sun 08:36:00 AM 67.6000 -21.5630 264° West  Level FlightAware Approximate
Sun 08:37:00 AM 67.5869 -21.8814 264° West  Level FlightAware Approximate
Sun 08:38:00 AM 67.5732 -22.1994 264° West  Level FlightAware Approximate
Sun 08:39:00 AM 67.5588 -22.5170 263° West  Level FlightAware Approximate
Sun 08:40:00 AM 67.5438 -22.8342 263° West  Level FlightAware Approximate
Sun 08:41:00 AM 67.5282 -23.1511 263° West  Level FlightAware Approximate
Sun 08:42:00 AM 67.5120 -23.4674 263° West  Level FlightAware Approximate
Sun 08:43:00 AM 67.4951 -23.7834 262° West  Level FlightAware Approximate
Sun 08:44:00 AM 67.4777 -24.0989 262° West  Level FlightAware Approximate
Sun 08:45:00 AM 67.4596 -24.4139 262° West  Level FlightAware Approximate
Sun 08:46:00 AM 67.4409 -24.7284 261° West  Level FlightAware Approximate
Sun 08:47:00 AM 67.4216 -25.0425 261° West  Level FlightAware Approximate
Sun 08:48:00 AM 67.4017 -25.3560 261° West  Level FlightAware Approximate
Sun 08:49:00 AM 67.3811 -25.6690 260° West  Level FlightAware Approximate
Sun 08:50:00 AM 67.3600 -25.9814 260° West  Level FlightAware Approximate
Sun 08:51:00 AM 67.3383 -26.2933 260° West  Level FlightAware Approximate
Sun 08:52:00 AM 67.3160 -26.6046 260° West  Level FlightAware Approximate
Sun 08:53:00 AM 67.2930 -26.9153 259° West  Level FlightAware Approximate
Sun 08:54:00 AM 67.2695 -27.2255 259° West  Level FlightAware Approximate
Sun 08:55:00 AM 67.2454 -27.5350 259° West  Level FlightAware Approximate
Sun 08:56:00 AM 67.2207 -27.8438 258° West  Level FlightAware Approximate
Sun 08:57:00 AM 67.1954 -28.1521 258° West  Level FlightAware Approximate
Sun 08:58:00 AM 67.1695 -28.4596 258° West  Level FlightAware Approximate
Sun 08:59:00 AM 67.1430 -28.7665 258° West  Level FlightAware Approximate
Sun 09:00:00 AM 67.1159 -29.0728 257° West  Level FlightAware Approximate
Sun 09:01:00 AM 67.0882 -29.3783 257° West  Level FlightAware Approximate
Sun 09:02:00 AM 67.0600 -29.6831 257° West  Level FlightAware Approximate
Sun 09:03:00 AM 67.0311 -29.9873 256° West  Level FlightAware Approximate
Sun 09:04:00 AM 67.0017 -30.2906 256° West  Level FlightAware Approximate
Sun 09:05:00 AM 66.9717 -30.5933 256° West  Level FlightAware Approximate
Sun 09:06:00 AM 66.9412 -30.8952 256° West  Level FlightAware Approximate
Sun 09:07:00 AM 66.9101 -31.1963 255° West  Level FlightAware Approximate
Sun 09:08:00 AM 66.8782 -31.4965 254° West  Level FlightAware Approximate
Sun 09:09:00 AM 66.8451 -31.7955 254° West  Level FlightAware Approximate
Sun 09:10:00 AM 66.8115 -32.0937 254° West  Level FlightAware Approximate
Sun 09:11:00 AM 66.7773 -32.3910 254° West  Level FlightAware Approximate
Sun 09:12:00 AM 66.7425 -32.6876 254° West  Level FlightAware Approximate
Sun 09:13:00 AM 66.7072 -32.9832 253° West  Level FlightAware Approximate
Sun 09:14:00 AM 66.6713 -33.2780 253° West  Level FlightAware Approximate
Sun 09:15:00 AM 66.6348 -33.5720 253° West  Level FlightAware Approximate
Sun 09:16:00 AM 66.5984 -33.8656 253° West  Level FlightAware Approximate
Sun 09:17:00 AM 66.5620 -34.1587 253° West  Level FlightAware Approximate
Sun 09:18:00 AM 66.5251 -34.4509 253° West  Level FlightAware Approximate
Sun 09:19:00 AM 66.4876 -34.7423 252° West  Level FlightAware Approximate
Sun 09:20:00 AM 66.4496 -35.0328 252° West  Level FlightAware Approximate
Sun 09:21:00 AM 66.4110 -35.3224 252° West  Level FlightAware Approximate
Sun 09:22:00 AM 66.3719 -35.6111 251° West  Level FlightAware Approximate
Sun 09:23:00 AM 66.3323 -35.8989 251° West  Level FlightAware Approximate
Sun 09:24:00 AM 66.2921 -36.1858 251° West  Level FlightAware Approximate
Sun 09:25:00 AM 66.2514 -36.4718 251° West  Level FlightAware Approximate
Sun 09:26:00 AM 66.2102 -36.7569 250° West  Level FlightAware Approximate
Sun 09:27:00 AM 66.1685 -37.0410 250° West  Level FlightAware Approximate
Sun 09:28:00 AM 66.1262 -37.3242 250° West  Level FlightAware Approximate
Sun 09:29:00 AM 66.0835 -37.6064 250° West  Level FlightAware Approximate
Sun 09:30:00 AM 66.0402 -37.8877 249° West  Level FlightAware Approximate
Sun 09:31:00 AM 65.9964 -38.1680 249° West  Level FlightAware Approximate
Sun 09:32:00 AM 65.9521 -38.4473 249° West  Level FlightAware Approximate
Sun 09:33:00 AM 65.9072 -38.7257 249° West  Level FlightAware Approximate
Sun 09:34:00 AM 65.8619 -39.0031 248° West  Level FlightAware Approximate
Sun 09:35:00 AM 65.8161 -39.2795 248° West  Level FlightAware Approximate
Sun 09:36:00 AM 65.7698 -39.5549 248° West  Level FlightAware Approximate
Sun 09:37:00 AM 65.7230 -39.8294 248° West  Level FlightAware Approximate
Sun 09:38:00 AM 65.6757 -40.1028 247° West  Level FlightAware Approximate
Sun 09:39:00 AM 65.6278 -40.3750 247° West  Level FlightAware Approximate
Sun 09:40:00 AM 65.5791 -40.6461 247° West  Level FlightAware Approximate
Sun 09:41:00 AM 65.5300 -40.9161 246° West  Level FlightAware Approximate
Sun 09:42:00 AM 65.4804 -41.1851 246° West  Level FlightAware Approximate
Sun 09:43:00 AM 65.4303 -41.4530 246° West  Level FlightAware Approximate
Sun 09:44:00 AM 65.3798 -41.7200 246° West  Level FlightAware Approximate
Sun 09:45:00 AM 65.3288 -41.9859 245° Southwest  Level FlightAware Approximate
Sun 09:46:00 AM 65.2773 -42.2508 245° Southwest  Level FlightAware Approximate
Sun 09:47:00 AM 65.2253 -42.5146 245° Southwest  Level FlightAware Approximate
Sun 09:48:00 AM 65.1729 -42.7774 245° Southwest  Level FlightAware Approximate
Sun 09:49:00 AM 65.1201 -43.0392 244° Southwest  Level FlightAware Approximate
Sun 09:50:00 AM 65.0667 -43.2999 244° Southwest  Level FlightAware Approximate
Sun 09:51:00 AM 65.0130 -43.5596 244° Southwest  Level FlightAware Approximate
Sun 09:52:00 AM 64.9588 -43.8182 244° Southwest  Level FlightAware Approximate
Sun 09:53:00 AM 64.9041 -44.0757 244° Southwest  Level FlightAware Approximate
Sun 09:54:00 AM 64.8490 -44.3323 243° Southwest  Level FlightAware Approximate
Sun 09:55:00 AM 64.7934 -44.5877 243° Southwest  Level FlightAware Approximate
Sun 09:56:00 AM 64.7374 -44.8422 243° Southwest  Level FlightAware Approximate
Sun 09:57:00 AM 64.6810 -45.0955 243° Southwest  Level FlightAware Approximate
Sun 09:58:00 AM 64.6242 -45.3478 242° Southwest  Level FlightAware Approximate
Sun 09:59:00 AM 64.5669 -45.5990 242° Southwest  Level FlightAware Approximate
Sun 10:00:00 AM 64.5092 -45.8492 242° Southwest  Level FlightAware Approximate
Sun 10:01:00 AM 64.4511 -46.0984 242° Southwest  Level FlightAware Approximate
Sun 10:02:00 AM 64.3925 -46.3464 241° Southwest  Level FlightAware Approximate
Sun 10:03:00 AM 64.3335 -46.5934 241° Southwest  Level FlightAware Approximate
Sun 10:04:00 AM 64.2742 -46.8394 241° Southwest  Level FlightAware Approximate
Sun 10:05:00 AM 64.2144 -47.0843 241° Southwest  Level FlightAware Approximate
Sun 10:06:00 AM 64.1542 -47.3281 241° Southwest  Level FlightAware Approximate
Sun 10:07:00 AM 64.0936 -47.5709 240° Southwest  Level FlightAware Approximate
Sun 10:08:00 AM 64.0326 -47.8126 240° Southwest  Level FlightAware Approximate
Sun 10:09:00 AM 63.9712 -48.0532 240° Southwest  Level FlightAware Approximate
Sun 10:10:00 AM 63.9094 -48.2928 240° Southwest  Level FlightAware Approximate
Sun 10:11:00 AM 63.8472 -48.5314 239° Southwest  Level FlightAware Approximate
Sun 10:12:00 AM 63.7846 -48.7689 239° Southwest  Level FlightAware Approximate
Sun 10:13:00 AM 63.7216 -49.0053 239° Southwest  Level FlightAware Approximate
Sun 10:14:00 AM 63.6582 -49.2407 239° Southwest  Level FlightAware Approximate
Sun 10:15:00 AM 63.5945 -49.4750 239° Southwest  Level FlightAware Approximate
Sun 10:16:00 AM 63.5304 -49.7083 238° Southwest  Level FlightAware Approximate
Sun 10:17:00 AM 63.4659 -49.9405 238° Southwest  Level FlightAware Approximate
Sun 10:18:00 AM 63.4010 -50.1717 238° Southwest  Level FlightAware Approximate
Sun 10:19:00 AM 63.3358 -50.4018 238° Southwest  Level FlightAware Approximate
Sun 10:20:00 AM 63.2701 -50.6309 238° Southwest  Level FlightAware Approximate
Sun 10:21:00 AM 63.2042 -50.8589 237° Southwest  Level FlightAware Approximate
Sun 10:22:00 AM 63.1378 -51.0859 237° Southwest  Level FlightAware Approximate
Sun 10:23:00 AM 63.0711 -51.3119 237° Southwest  Level FlightAware Approximate
Sun 10:24:00 AM 63.0040 -51.5368 237° Southwest  Level FlightAware Approximate
Sun 10:25:00 AM 62.9366 -51.7607 237° Southwest  Level FlightAware Approximate
Sun 10:26:00 AM 62.8689 -51.9836 236° Southwest  Level FlightAware Approximate
Sun 10:27:00 AM 62.8007 -52.2054 236° Southwest  Level FlightAware Approximate
Sun 10:28:00 AM 62.7323 -52.4262 236° Southwest  Level FlightAware Approximate
Sun 10:29:00 AM 62.6634 -52.6460 236° Southwest  Level FlightAware Approximate
Sun 10:30:00 AM 62.5943 -52.8647 236° Southwest  Level FlightAware Approximate
Sun 10:30:28 AM 63.5000 -55.5667 220° Southwest 460 529 37,000  Level Gander Center
Sun 10:31:00 AM 62.5248 -53.0825 235° Southwest  Level FlightAware Approximate
Sun 10:32:00 AM 62.4549 -53.2992 235° Southwest  Level FlightAware Approximate
Sun 10:32:28 AM 63.3667 -56.0333 238° Southwest 480 552 37,000  Level Gander Center
Sun 10:33:00 AM 62.3591 -53.4728 220° Southwest  Level Estimated
Sun 10:33:28 AM 63.2833 -56.3167 237° Southwest 490 564 37,000  Level Gander Center
Sun 10:34:00 AM 62.2630 -53.6453 220° Southwest  Level Estimated
Sun 10:34:28 AM 63.2167 -56.5500 238° Southwest 480 552 37,000  Level Gander Center
Sun 10:35:00 AM 62.1666 -53.8168 220° Southwest  Level Estimated
Sun 10:35:28 AM 63.1333 -56.8167 235° Southwest 490 564 37,000  Level Gander Center
Sun 10:36:00 AM 62.0701 -53.9871 220° Southwest  Level Estimated
Sun 10:36:28 AM 63.0833 -57.0333 243° Southwest 480 552 37,000  Level Gander Center
Sun 10:37:28 AM 62.9833 -57.3000 231° Southwest 490 564 37,000  Level Gander Center
Sun 10:38:28 AM 62.9167 -57.5333 238° Southwest 490 564 37,000  Level Gander Center
Sun 10:39:28 AM 62.8500 -57.7667 238° Southwest 480 552 37,000  Level Gander Center
Sun 10:40:19 AM 62.7667 -57.9000 216° Southwest 480 552 37,000  Level Montreal Center
Sun 10:41:19 AM 62.7000 -58.1333 238° Southwest 480 552 37,000  Level Montreal Center
Sun 10:42:19 AM 62.6167 -58.3667 232° Southwest 480 552 37,000  Level Montreal Center
Sun 10:43:19 AM 62.5500 -58.6333 242° Southwest 480 552 37,000  Level Montreal Center
Sun 10:44:19 AM 62.4667 -58.8667 232° Southwest 490 564 37,000  Level Montreal Center
Sun 10:45:19 AM 62.3833 -59.1000 232° Southwest 490 564 37,000  Level Montreal Center
Sun 10:46:19 AM 62.3167 -59.3167 237° Southwest 490 564 37,000  Level Montreal Center
Sun 10:47:19 AM 62.2167 -59.5833 231° Southwest 490 564 37,000  Level Montreal Center
Sun 10:48:19 AM 62.1500 -59.8167 239° Southwest 490 564 37,000  Level Montreal Center
Sun 10:49:19 AM 62.0667 -60.0333 231° Southwest 490 564 37,000  Level Montreal Center
Sun 10:50:19 AM 61.9833 -60.2667 233° Southwest 490 564 37,000  Level Montreal Center
Sun 10:51:19 AM 61.9167 -60.4833 237° Southwest 480 552 37,000  Level Montreal Center
Sun 10:52:19 AM 61.8167 -60.7500 232° Southwest 480 552 37,000  Level Montreal Center
Sun 10:53:19 AM 61.7333 -60.9667 231° Southwest 480 552 37,000  Level Montreal Center
Sun 10:54:19 AM 61.6667 -61.1833 237° Southwest 480 552 37,000  Level Montreal Center
Sun 10:55:19 AM 61.5833 -61.4000 231° Southwest 470 541 37,000  Level Montreal Center
Sun 10:56:19 AM 61.5000 -61.6167 231° Southwest 470 541 37,000  Level Montreal Center
Sun 10:57:19 AM 61.4000 -61.8333 226° Southwest 470 541 37,000  Level Montreal Center
Sun 10:58:19 AM 61.3167 -62.0500 231° Southwest 480 552 37,000  Level Montreal Center
Sun 10:59:19 AM 61.2500 -62.2667 237° Southwest 480 552 37,000  Level Montreal Center
Sun 11:00:19 AM 61.1667 -62.4667 229° Southwest 480 552 37,000  Level Montreal Center
Sun 11:02:10 AM 61.0000 -63.0000 237° Southwest 490 564 37,000  Level Gander Center
Sun 11:03:10 AM 60.9167 -63.2000 229° Southwest 490 564 37,000 500 Level Gander Center
Sun 11:04:10 AM 60.8333 -63.4333 234° Southwest 480 552 38,000 500 Climbing Gander Center
Sun 11:05:10 AM 60.7500 -63.6333 230° Southwest 460 529 38,000  Level Gander Center
Sun 11:06:10 AM 60.6667 -63.8333 230° Southwest 460 529 38,000  Level Gander Center
Sun 11:07:10 AM 60.5833 -64.0167 227° Southwest 460 529 38,000  Level Gander Center
Sun 11:08:10 AM 60.5000 -64.2167 230° Southwest 460 529 38,000  Level Gander Center
Sun 11:09:10 AM 60.4333 -64.4167 236° Southwest 460 529 38,000  Level Gander Center
Sun 11:10:10 AM 60.3500 -64.6167 230° Southwest 460 529 38,000  Level Gander Center
Sun 11:11:10 AM 60.2500 -64.8000 222° Southwest 460 529 38,000  Level Gander Center
Sun 11:12:10 AM 60.1667 -65.0000 230° Southwest 470 541 38,000  Level Gander Center
Sun 11:13:10 AM 60.0833 -65.1833 228° Southwest 470 541 38,000  Level Gander Center
Sun 11:14:10 AM 59.9833 -65.3667 223° Southwest 470 541 38,000  Level Gander Center
Sun 11:15:19 AM 59.8667 -65.5000 210° Southwest 480 552 38,000  Level Montreal Center
Sun 11:16:19 AM 59.7833 -65.6833 228° Southwest 480 552 38,000  Level Montreal Center
Sun 11:17:19 AM 59.6667 -65.8500 216° Southwest 480 552 38,000  Level Montreal Center
Sun 11:18:19 AM 59.5667 -66.0167 220° Southwest 480 552 38,000  Level Montreal Center
Sun 11:19:19 AM 59.4667 -66.2167 226° Southwest 480 552 38,000  Level Montreal Center
Sun 11:20:19 AM 59.3667 -66.3833 220° Southwest 470 541 38,000  Level Montreal Center
Sun 11:21:19 AM 59.2667 -66.5333 217° Southwest 470 541 38,000  Level Montreal Center
Sun 11:22:19 AM 59.1667 -66.7000 221° Southwest 470 541 38,000  Level Montreal Center
Sun 11:23:19 AM 59.0667 -66.8500 218° Southwest 470 541 38,000  Level Montreal Center
Sun 11:24:19 AM 58.9667 -67.0500 226° Southwest 470 541 38,000  Level Montreal Center
Sun 11:25:19 AM 58.8667 -67.2000 218° Southwest 470 541 38,000  Level Montreal Center
Sun 11:26:19 AM 58.7667 -67.3500 218° Southwest 470 541 38,000  Level Montreal Center
Sun 11:28:10 AM 58.5833 -67.7167 226° Southwest 470 541 38,000  Level Gander Center
Sun 11:29:10 AM 58.4667 -67.8500 211° Southwest 470 541 38,000  Level Gander Center
Sun 11:30:10 AM 58.3667 -68.0167 221° Southwest 470 541 38,000  Level Gander Center
Sun 11:31:10 AM 58.2667 -68.2000 224° Southwest 480 552 38,000  Level Gander Center
Sun 11:32:10 AM 58.1667 -68.3667 221° Southwest 500 575 38,000  Level Gander Center
Sun 11:33:18 AM 58.0667 -68.4500 204° Southwest 590 679 38,000  Level Montreal Center
Sun 11:34:18 AM 57.9667 -68.6000 219° Southwest 480 552 38,000  Level Montreal Center
Sun 11:35:18 AM 57.8500 -68.7500 214° Southwest 470 541 38,000  Level Montreal Center
Sun 11:36:18 AM 57.7333 -68.9000 214° Southwest 470 541 38,000  Level Montreal Center
Sun 11:37:18 AM 57.6500 -69.0333 221° Southwest 470 541 38,000  Level Montreal Center
Sun 11:39:18 AM 57.4333 -69.3000 212° Southwest 460 529 38,000  Level Montreal Center
Sun 11:41:18 AM 57.2167 -69.5833 215° Southwest 450 518 38,000  Level Montreal Center
Sun 11:42:18 AM 57.1167 -69.7333 219° Southwest 450 518 38,000  Level Montreal Center
Sun 11:43:18 AM 57.0167 -69.8667 216° Southwest 450 518 38,000  Level Montreal Center
Sun 11:44:18 AM 56.9167 -69.9833 213° Southwest 460 529 38,000  Level Montreal Center
Sun 11:45:18 AM 56.8000 -70.1167 212° Southwest 460 529 38,000  Level Montreal Center
Sun 11:46:18 AM 56.7167 -70.2500 221° Southwest 460 529 38,000  Level Montreal Center
Sun 11:47:18 AM 56.6000 -70.4000 215° Southwest 460 529 38,000  Level Montreal Center
Sun 11:48:18 AM 56.4833 -70.5333 212° Southwest 460 529 38,000  Level Montreal Center
Sun 11:49:18 AM 56.3833 -70.6333 209° Southwest 460 529 38,000  Level Montreal Center
Sun 11:50:18 AM 56.2833 -70.7667 217° Southwest 450 518 38,000  Level Montreal Center
Sun 11:51:18 AM 56.1833 -70.9167 220° Southwest 460 529 38,000  Level Montreal Center
Sun 11:52:18 AM 56.0667 -71.0500 213° Southwest 460 529 38,000  Level Montreal Center
Sun 11:53:18 AM 55.9500 -71.1500 206° Southwest 450 518 38,000  Level Montreal Center
Sun 11:55:18 AM 55.7500 -71.4167 217° Southwest 450 518 38,000  Level Montreal Center
Sun 11:56:18 AM 55.6500 -71.5500 217° Southwest 450 518 38,000  Level Montreal Center
Sun 11:57:18 AM 55.5500 -71.6500 210° Southwest 450 518 38,000  Level Montreal Center
Sun 11:58:18 AM 55.4333 -71.7833 213° Southwest 450 518 38,000  Level Montreal Center
Sun 11:59:18 AM 55.3500 -71.9000 219° Southwest 450 518 38,000  Level Montreal Center
Sun 12:00:18 PM 55.2333 -72.0000 206° Southwest 450 518 38,000  Level Montreal Center
Sun 12:01:18 PM 55.1333 -72.1333 217° Southwest 460 529 38,000  Level Montreal Center
Sun 12:02:18 PM 55.0167 -72.2667 213° Southwest 460 529 38,000  Level Montreal Center
Sun 12:03:18 PM 54.9167 -72.3833 214° Southwest 450 518 38,000  Level Montreal Center
Sun 12:05:18 PM 54.6833 -72.6167 210° Southwest 440 506 38,000  Level Montreal Center
Sun 12:06:18 PM 54.6000 -72.7333 219° Southwest 440 506 38,000  Level Montreal Center
Sun 12:08:18 PM 54.3833 -72.9500 210° Southwest 440 506 38,000  Level Montreal Center
Sun 12:09:18 PM 54.2833 -73.0833 218° Southwest 440 506 38,000  Level Montreal Center
Sun 12:10:18 PM 54.1833 -73.2000 214° Southwest 440 506 38,000  Level Montreal Center
Sun 12:11:18 PM 54.0833 -73.3000 210° Southwest 430 495 38,000  Level Montreal Center
Sun 12:12:18 PM 53.9833 -73.4167 214° Southwest 430 495 38,000  Level Montreal Center
Sun 12:13:18 PM 53.8833 -73.5000 206° Southwest 430 495 38,000  Level Montreal Center
Sun 12:14:18 PM 53.7667 -73.6333 214° Southwest 430 495 38,000  Level Montreal Center
Sun 12:15:18 PM 53.6667 -73.7167 206° Southwest 430 495 38,000  Level Montreal Center
Sun 12:16:18 PM 53.5500 -73.8167 207° Southwest 440 506 38,000  Level Montreal Center
Sun 12:17:18 PM 53.4333 -73.9333 211° Southwest 430 495 38,000  Level Montreal Center
Sun 12:18:18 PM 53.3333 -74.0167 206° Southwest 430 495 38,000  Level Montreal Center
Sun 12:19:18 PM 53.2167 -74.1000 203° Southwest 430 495 38,000  Level Montreal Center
Sun 12:20:18 PM 53.1167 -74.2000 211° Southwest 440 506 38,000  Level Montreal Center
Sun 12:22:18 PM 52.9167 -74.3667 207° Southwest 440 506 38,000  Level Montreal Center
Sun 12:23:18 PM 52.8000 -74.4667 207° Southwest 440 506 38,000  Level Montreal Center
Sun 12:24:18 PM 52.6833 -74.5500 203° Southwest 440 506 38,000  Level Montreal Center
Sun 12:25:18 PM 52.5833 -74.6333 207° Southwest 440 506 38,000  Level Montreal Center
Sun 12:26:18 PM 52.4500 -74.7167 201° Southwest 440 506 38,000  Level Montreal Center
Sun 12:27:18 PM 52.3333 -74.8000 204° Southwest 440 506 38,000  Level Montreal Center
Sun 12:28:18 PM 52.2333 -74.9000 211° Southwest 440 506 38,000  Level Montreal Center
Sun 12:29:18 PM 52.1167 -74.9833 204° Southwest 440 506 38,000  Level Montreal Center
Sun 12:30:18 PM 52.0167 -75.0833 212° Southwest 450 518 38,000  Level Montreal Center
Sun 12:31:18 PM 51.9000 -75.1667 204° Southwest 440 506 38,000  Level Montreal Center
Sun 12:32:18 PM 51.7833 -75.2500 204° Southwest 430 495 38,000  Level Montreal Center
Sun 12:33:18 PM 51.6833 -75.3333 207° Southwest 430 495 38,000  Level Montreal Center
Sun 12:34:18 PM 51.5667 -75.4167 204° Southwest 430 495 38,000  Level Montreal Center
Sun 12:35:18 PM 51.4667 -75.5000 207° Southwest 430 495 38,000  Level Montreal Center
Sun 12:36:18 PM 51.3500 -75.5833 204° Southwest 430 495 38,000  Level Montreal Center
Sun 12:37:18 PM 51.2500 -75.6667 208° Southwest 430 495 38,000  Level Montreal Center
Sun 12:38:18 PM 51.1333 -75.7500 204° Southwest 430 495 38,000  Level Montreal Center
Sun 12:39:18 PM 51.0333 -75.8333 208° Southwest 440 506 38,000  Level Montreal Center
Sun 12:41:18 PM 50.8167 -76.0000 206° Southwest 440 506 38,000  Level Montreal Center
Sun 12:44:18 PM 50.4833 -76.2333 204° Southwest 430 495 38,000  Level Montreal Center
Sun 12:45:18 PM 50.3833 -76.3167 208° Southwest 430 495 38,000  Level Montreal Center
Sun 12:46:18 PM 50.2667 -76.3833 200° South 430 495 38,000  Level Montreal Center
Sun 12:48:18 PM 50.0333 -76.5500 204° Southwest 440 506 38,000  Level Montreal Center
Sun 12:49:18 PM 49.9167 -76.6167 200° South 430 495 38,000  Level Montreal Center
Sun 12:50:18 PM 49.8167 -76.7000 208° Southwest 430 495 38,000  Level Montreal Center
Sun 12:51:18 PM 49.7000 -76.8000 209° Southwest 430 495 38,000  Level Montreal Center
Sun 12:53:18 PM 49.5000 -76.9167 203° Southwest 420 483 38,000  Level Montreal Center
Sun 12:54:18 PM 49.3667 -77.0000 202° Southwest 450 518 38,000  Level Montreal Center
Sun 12:56:18 PM 49.1667 -77.1667 209° Southwest 420 483 38,000  Level Montreal Center
Sun 12:57:18 PM 49.0500 -77.2167 196° South 430 495 38,000  Level Montreal Center
Sun 12:58:18 PM 48.9333 -77.3167 209° Southwest 430 495 38,000  Level Montreal Center
Sun 12:59:18 PM 48.8167 -77.3667 196° South 430 495 38,000  Level Montreal Center
Sun 01:00:18 PM 48.7167 -77.4667 213° Southwest 430 495 38,000  Level Montreal Center
Sun 01:01:56 PM 48.5500 -77.5500 198° South 430 495 38,000  Level Toronto Center
Sun 01:02:57 PM 48.4333 -77.6167 201° Southwest 440 506 38,000  Level Toronto Center
Sun 01:03:56 PM 48.3167 -77.7000 205° Southwest 440 506 38,000  Level Toronto Center
Sun 01:05:18 PM 48.1667 -77.8333 211° Southwest 430 495 38,000  Level Montreal Center
Sun 01:06:18 PM 48.0667 -77.8833 198° South 430 495 38,000  Level Montreal Center
Sun 01:07:18 PM 47.9333 -77.9500 199° South 430 495 38,000  Level Montreal Center
Sun 01:08:56 PM 47.7500 -78.0167 194° South 430 495 38,000  Level Toronto Center
Sun 01:09:56 PM 47.6333 -78.1000 206° Southwest 430 495 38,000  Level Toronto Center
Sun 01:10:56 PM 47.5333 -78.1500 199° South 430 495 38,000  Level Toronto Center
Sun 01:12:18 PM 47.3833 -78.2667 208° Southwest 420 483 38,000  Level Montreal Center
Sun 01:13:18 PM 47.2833 -78.3500 209° Southwest 420 483 38,000  Level Montreal Center
Sun 01:14:18 PM 47.1667 -78.4167 201° Southwest 430 495 38,000  Level Montreal Center
Sun 01:15:18 PM 47.0500 -78.4500 191° South 430 495 38,000  Level Montreal Center
Sun 01:16:18 PM 46.9333 -78.5167 201° Southwest 430 495 38,000  Level Montreal Center
Sun 01:16:57 PM 46.8667 -78.5333 190° South 430 495 38,000  Level Toronto Center
Sun 01:19:18 PM 46.6167 -78.7333 209° Southwest 430 495 38,000  Level Montreal Center
Sun 01:19:56 PM 46.5333 -78.7333 180° South 430 495 38,000  Level Toronto Center
Sun 01:20:57 PM 46.4333 -78.7833 199° South 430 495 38,000  Level Toronto Center
Sun 01:21:56 PM 46.3167 -78.8667 206° Southwest 430 495 38,000  Level Toronto Center
Sun 01:23:56 PM 46.1000 -78.9667 198° South 420 483 38,000  Level Toronto Center
Sun 01:30:28 PM 45.4167 -79.3593 198° South 413 475 38,000  Level FlightAware ADS-B
Sun 01:31:28 PM 45.3112 -79.4148 200° South 413 475 38,000  Level FlightAware ADS-B
Sun 01:33:56 PM 45.0193 -79.5676 200° South 415 478 38,000  Level FlightAware ADS-B
Sun 01:34:27 PM 44.9495 -79.6038 200° South 421 484 38,000  Level FlightAware ADS-B
Sun 01:36:01 PM 44.8247 -79.6685 200° South 418 481 38,000  Level FlightAware ADS-B
Sun 01:36:55 PM 44.6816 -79.7422 200° South 415 478 38,000  Level FlightAware ADS-B (EPLB / LUZ)
Sun 01:37:29 PM 44.6816 -79.7422 223° Southwest 415 478 38,000  Level FlightAware ADS-B
Sun 01:38:11 PM 44.5478 -79.8230 203° Southwest 408 470 38,000  Level FlightAware ADS-B (EPLB / LUZ)
Sun 01:38:43 PM 44.4978 -79.8681 213° Southwest 407 468 38,000  Level FlightAware ADS-B (EPLB / LUZ)
Sun 01:39:24 PM 44.4358 -79.9249 213° Southwest 408 470 38,000  Level FlightAware ADS-B (EPLB / LUZ)
Sun 01:39:29 PM 44.4472 -79.9146 33° Northeast 403 464 38,000  Level FlightAware ADS-B
Sun 01:40:11 PM 44.3727 -79.9819 213° Southwest 405 466 38,000  Level FlightAware ADS-B
Sun 01:40:52 PM 44.3084 -80.0396 213° Southwest 408 470 38,000  Level FlightAware ADS-B
Sun 01:41:32 PM 44.2482 -80.0935 213° Southwest 408 470 38,000  Level FlightAware ADS-B
Sun 01:42:19 PM 44.2213 -80.1175 213° Southwest 414 476 38,000  Level FlightAware ADS-B (EPLB / LUZ)
Sun 01:43:53 PM 44.0030 -80.3115 213° Southwest 417 480 38,000  Level FlightAware ADS-B (CYKF)
Sun 01:44:23 PM 43.9627 -80.3470 212° Southwest 419 482 38,000  Level FlightAware ADS-B (EPLB / LUZ)
Sun 01:44:54 PM 43.9010 -80.4015 212° Southwest 420 483 38,000  Level FlightAware ADS-B (CYKF)
Sun 01:45:28 PM 43.8437 -80.4520 212° Southwest 421 484 38,000  Level FlightAware ADS-B (EPLB / LUZ)
Sun 01:46:00 PM 43.7909 -80.4985 212° Southwest 420 483 38,000  Level FlightAware ADS-B
Sun 01:46:34 PM 43.7525 -80.5321 212° Southwest 420 483 38,000  Level FlightAware ADS-B (EPLB / LUZ)
Sun 01:47:15 PM 43.6702 -80.6039 212° Southwest 420 483 38,000  Level FlightAware ADS-B (CYKF)
Sun 01:47:47 PM 43.6353 -80.6343 212° Southwest 419 482 38,000  Level FlightAware ADS-B
Sun 01:48:28 PM 43.5501 -80.7084 212° Southwest 418 481 38,000  Level FlightAware ADS-B (EPLB / LUZ)
Sun 01:49:08 PM 43.4827 -80.7670 212° Southwest 418 481 38,000  Level FlightAware ADS-B
Sun 01:49:44 PM 43.4391 -80.8047 212° Southwest 418 481 38,000  Level FlightAware ADS-B (EPLB / LUZ)
Sun 01:50:18 PM 43.3787 -80.8569 212° Southwest 418 481 38,000  Level FlightAware ADS-B (CYKF)
Sun 01:50:55 PM 43.3073 -80.9184 212° Southwest 417 480 38,000  Level FlightAware ADS-B (EPLB / LUZ)
Sun 01:51:39 PM 43.2440 -80.9728 212° Southwest 416 479 38,000  Level FlightAware ADS-B (CYKF)
Sun 01:52:18 PM 43.1725 -81.0341 212° Southwest 415 478 38,000  Level FlightAware ADS-B (CYKF)
Sun 01:52:59 PM 43.1066 -81.0904 212° Southwest 415 478 38,000  Level FlightAware ADS-B (CYKF)
Sun 01:53:32 PM 43.0541 -81.1350 212° Southwest 418 481 38,000  Level FlightAware ADS-B (CYKF)
Sun 01:54:12 PM 42.9912 -81.1767 206° Southwest 423 487 38,000  Level FlightAware ADS-B (EPLB / LUZ)
Sun 01:54:51 PM 42.9139 -81.2252 205° Southwest 421 484 38,000  Level FlightAware ADS-B (EPLB / LUZ)
Sun 01:55:28 PM 42.9371 -81.2105 25° Northeast 420 483 38,000  Level FlightAware ADS-B (CYKF)
Sun 01:55:58 PM 42.9371 -81.2105 25° Northeast 419 482 38,000  Level FlightAware ADS-B (CYKF)
Sun 01:56:58 PM 42.6893 -81.3641 205° Southwest 420 483 38,000  Level FlightAware ADS-B (CYKF)
Sun 01:57:36 PM 42.6386 -81.3951 204° Southwest 422 486 38,000  Level FlightAware ADS-B (EPLB / LUZ)
Sun 01:58:13 PM 42.5571 -81.4448 204° Southwest 422 486 38,000  Level FlightAware ADS-B (EPLB / LUZ)
Sun 01:58:59 PM 42.4746 -81.4951 204° Southwest 423 487 38,000  Level FlightAware ADS-B (CYKF)
Sun 01:59:34 PM 42.4123 -81.5330 204° Southwest 423 487 38,000  Level FlightAware ADS-B (CYKF)
Sun 02:00:07 PM 42.4172 -81.5301 24° Northeast 423 487 38,000  Level FlightAware ADS-B (EPLB / LUZ)
Sun 02:00:48 PM 42.2806 -81.6127 204° Southwest 422 486 38,000  Level FlightAware ADS-B (EPLB / LUZ)
Sun 02:01:42 PM 42.1839 -81.6712 204° Southwest 421 484 38,000  Level FlightAware ADS-B (EPLB / LUZ)
Sun 02:02:21 PM 42.1174 -81.7112 204° Southwest 422 486 38,000  Level FlightAware ADS-B (EPLB / LUZ)
Sun 02:03:01 PM 42.0581 -81.7475 204° Southwest 422 486 38,000  Level Cleveland Center
Sun 02:05:04 PM 41.8431 -81.8758 204° Southwest 419 482 38,000  Level Cleveland Center
Sun 02:06:06 PM 41.7178 -81.9486 203° Southwest 419 482 38,000  Level Cleveland Center
Sun 02:08:35 PM 41.4689 -82.0953 202° Southwest 419 482 38,000  Level Indianapolis Center
Sun 02:09:11 PM 41.3981 -82.1364 204° Southwest 418 481 38,000  Level Cleveland Center
Sun 02:10:13 PM 41.2850 -82.1844 198° South 426 490 38,000  Level Cleveland Center
Sun 02:12:16 PM 41.0531 -82.2708 196° South 430 495 38,000  Level Cleveland Center
Sun 02:14:44 PM 40.7592 -82.3753 195° South 433 498 38,000  Level Indianapolis Center
Sun 02:16:23 PM 40.5647 -82.4439 195° South 434 499 38,000  Level Cleveland Center
Sun 02:17:25 PM 40.4475 -82.4858 195° South 429 494 38,000  Level Cleveland Center
Sun 02:23:14 PM 39.7343 -82.6168 195° South 449 517 38,000  Level FlightAware ADS-B
Sun 02:23:54 PM 39.6517 -82.6222 183° South 447 514 38,000  Level FlightAware ADS-B
Sun 02:24:34 PM 39.5692 -82.6279 183° South 445 512 38,000  Level FlightAware ADS-B
Sun 02:25:14 PM 39.4878 -82.6334 183° South 445 512 38,000  Level FlightAware ADS-B
Sun 02:25:55 PM 39.4052 -82.6389 183° South 444 511 38,000  Level FlightAware ADS-B
Sun 02:26:32 PM 39.3318 -82.6438 183° South 449 517 38,000  Level FlightAware ADS-B
Sun 02:27:15 PM 39.2443 -82.6497 183° South 454 522 38,000  Level FlightAware ADS-B
Sun 02:27:59 PM 39.1455 -82.6562 183° South 458 527 38,000  Level FlightAware ADS-B
Sun 02:28:55 PM 39.0271 -82.6640 183° South 460 529 38,000  Level FlightAware ADS-B
Sun 02:29:35 PM 38.9459 -82.6694 183° South 461 531 38,000  Level FlightAware ADS-B
Sun 02:30:08 PM 38.8759 -82.6740 183° South 462 532 38,000  Level FlightAware ADS-B
Sun 02:31:07 PM 38.7462 -82.6824 183° South 461 531 38,000  Level FlightAware ADS-B
Sun 02:31:37 PM 38.6854 -82.6865 183° South 460 529 38,000  Level FlightAware ADS-B
Sun 02:32:13 PM 38.6361 -82.6896 183° South 458 527 38,000  Level FlightAware ADS-B
Sun 02:33:16 PM 38.5036 -82.6986 183° South 459 528 38,000  Level Indianapolis Center
Sun 02:34:16 PM 38.3553 -82.7089 183° South 457 526 38,000  Level Indianapolis Center
Sun 02:36:21 PM 38.0994 -82.7264 183° South 460 529 38,000  Level Indianapolis Center
Sun 02:39:25 PM 37.7153 -82.7544 207° Southwest 460 529 38,000  Level Indianapolis Center
Sun 02:41:29 PM 37.4806 -82.8819 208° Southwest 422 486 38,000  Level Indianapolis Center
Sun 02:42:30 PM 37.3792 -82.9494 208° Southwest 415 478 38,000  Level Indianapolis Center
Sun 02:44:35 PM 37.1597 -83.0961 208° Southwest 411 473 38,000  Level Atlanta Center
Sun 02:45:00 PM 37.1116 -83.1068 207° Southwest  Level FlightAware Approximate
Sun 02:45:37 PM 37.0553 -83.1594 206° Southwest 418 481 38,000  Level Indianapolis Center
Sun 02:47:35 PM 36.8486 -83.2969 208° Southwest 417 480 38,000  Level Atlanta Center
Sun 02:48:43 PM 36.7486 -83.3575 206° Southwest 417 480 38,000  Level Indianapolis Center
Sun 02:49:43 PM 36.6450 -83.4244 207° Southwest 419 482 38,000  Level Indianapolis Center
Sun 02:51:35 PM 36.4347 -83.5614 208° Southwest 423 487 38,000  Level Atlanta Center
Sun 02:52:49 PM 36.3239 -83.6292 206° Southwest 421 484 38,000  Level Indianapolis Center
Sun 02:53:50 PM 36.2203 -83.6953 207° Southwest 419 482 38,000  Level Indianapolis Center
Sun 02:54:53 PM 36.0956 -83.7747 207° Southwest 419 482 38,000  Level Indianapolis Center
Sun 02:55:35 PM 36.0331 -83.8153 208° Southwest 423 487 38,000  Level Atlanta Center
Sun 02:56:35 PM 35.9267 -83.8797 206° Southwest 423 487 38,000 -30 Level Atlanta Center
Sun 03:02:13 PM 35.1666 -84.0733 206° Southwest 442 509 37,800 -126 Descending FlightAware ADS-B (KDZJ)
Sun 03:02:55 PM 35.0810 -84.0938 191° South 439 505 37,200 -585 Descending FlightAware ADS-B (KDZJ)
Sun 03:03:35 PM 34.9995 -84.1133 191° South 443 510 37,000 -152 Descending FlightAware ADS-B (KDZJ)
Sun 03:04:14 PM 34.9244 -84.1313 191° South 443 510 37,000  Level FlightAware ADS-B (KDZJ)
Sun 03:04:55 PM 34.8389 -84.1516 191° South 441 507 37,000  Level FlightAware ADS-B (KDZJ)
Sun 03:05:28 PM 34.7736 -84.1671 191° South 440 506 37,000  Level FlightAware ADS-B (KDZJ)
Sun 03:06:10 PM 34.6892 -84.1871 191° South 439 505 37,000  Level FlightAware ADS-B (KDZJ)
Sun 03:06:54 PM 34.6008 -84.2080 191° South 430 495 37,000  Level FlightAware ADS-B (KDZJ)
Sun 03:07:30 PM 34.5296 -84.2248 191° South 430 495 37,000  Level FlightAware ADS-B (KDZJ)
Sun 03:08:15 PM 34.4408 -84.2457 191° South 439 505 37,000  Level FlightAware ADS-B (KDZJ)
Sun 03:08:54 PM 34.3620 -84.2642 191° South 440 506 37,000  Level FlightAware ADS-B (KDZJ)
Sun 03:09:35 PM 34.2799 -84.2836 191° South 442 509 37,000  Level FlightAware ADS-B (KDZJ)
Sun 03:10:15 PM 34.2027 -84.3017 191° South 442 509 37,000  Level FlightAware ADS-B (KDZJ)
Sun 03:10:55 PM 34.1193 -84.3211 191° South 442 509 37,000  Level FlightAware ADS-B (KDZJ)
Sun 03:11:35 PM 34.0396 -84.3398 191° South 443 510 37,000  Level FlightAware ADS-B (KDZJ)
Sun 03:12:15 PM 33.9583 -84.3587 191° South 440 506 37,000  Level FlightAware ADS-B (KDZJ)
Sun 03:14:35 PM 33.7625 -84.4061 180° South 442 509 37,000  Level Atlanta Center
Sun 03:15:35 PM 33.6414 -84.4331 190° South 442 509 37,000  Level Atlanta Center
Sun 03:16:35 PM 33.5139 -84.4375 182° South 447 514 37,000  Level Atlanta Center
Sun 03:19:35 PM 33.1297 -84.4308 178° South 457 526 37,000  Level Atlanta Center
Sun 03:20:00 PM 33.0149 -84.4167 180° South  Level FlightAware Approximate
Sun 03:20:35 PM 33.0047 -84.4278 179° South 457 526 37,000  Level Atlanta Center
Sun 03:21:35 PM 32.8753 -84.4272 180° South 462 532 37,000  Level Atlanta Center
Sun 03:22:35 PM 32.7625 -84.4192 177° South 456 525 37,000  Level Atlanta Center
Sun 03:23:35 PM 32.6353 -84.4186 180° South 456 525 37,000  Level Atlanta Center
Sun 03:24:35 PM 32.5078 -84.4156 179° South 456 525 37,000  Level Atlanta Center
Sun 03:25:35 PM 32.3806 -84.4128 179° South 456 525 37,000  Level Atlanta Center
Sun 03:26:35 PM 32.2553 -84.4072 178° South 456 525 37,000  Level Atlanta Center
Sun 03:32:49 PM 29.9399 -83.6902 178° South 465 535 37,000  Level FlightAware ADS-B (KONZ)
Sun 03:37:00 PM 30.9668 -84.2721 334° Northwest 471 542 37,000  Level FlightAware ADS-B (KONZ)
Sun 03:37:41 PM 30.8614 -84.2227 158° South 468 539 37,000  Level FlightAware ADS-B (KONZ)
Sun 03:38:20 PM 30.7911 -84.1897 158° South 467 537 37,000  Level FlightAware ADS-B (KONZ)
Sun 03:38:57 PM 30.7087 -84.1511 158° South 467 537 37,000  Level FlightAware ADS-B (KONZ)
Sun 03:39:34 PM 30.6390 -84.1185 158° South 467 537 37,000  Level FlightAware ADS-B (KONZ)
Sun 03:40:20 PM 30.5421 -84.0733 158° South 465 535 37,000  Level FlightAware ADS-B (KONZ)
Sun 03:41:18 PM 30.4282 -84.0202 158° South 463 533 37,000  Level FlightAware ADS-B (KONZ)
Sun 03:41:58 PM 30.3470 -83.9825 158° South 460 529 37,000  Level FlightAware ADS-B (KONZ)
Sun 03:42:38 PM 30.2687 -83.9462 158° South 459 528 37,000  Level FlightAware ADS-B (KONZ)
Sun 03:43:18 PM 30.1898 -83.9096 158° South 460 529 37,000  Level FlightAware ADS-B (KONZ)
Sun 03:44:32 PM 30.0442 -83.8423 158° South 459 528 37,000  Level FlightAware ADS-B (KONZ)
Sun 03:45:12 PM 29.9728 -83.8095 158° South 457 526 37,000  Level FlightAware ADS-B (KONZ)
Sun 03:45:50 PM 29.8899 -83.7713 158° South 456 525 37,000  Level FlightAware ADS-B (KONZ)
Sun 03:46:23 PM 29.8439 -83.7522 158° South 455 524 37,000  Level Jacksonville Center
Sun 03:47:23 PM 29.7275 -83.6986 158° South 455 524 37,000  Level Jacksonville Center
Sun 03:48:23 PM 29.6067 -83.6450 159° South 455 524 37,000  Level Jacksonville Center
Sun 03:49:23 PM 29.4900 -83.5917 158° South 455 524 37,000  Level Jacksonville Center
Sun 03:51:23 PM 29.2525 -83.4828 158° South 450 518 37,000  Level Jacksonville Center
Sun 03:52:23 PM 29.1358 -83.4297 158° South 450 518 37,000  Level Jacksonville Center
Sun 03:53:23 PM 29.0172 -83.3769 159° South 450 518 37,000  Level Jacksonville Center
Sun 03:54:23 PM 28.8964 -83.3219 158° South 455 524 37,000  Level Jacksonville Center
Sun 03:55:23 PM 28.7756 -83.2644 157° South 460 529 37,000  Level Jacksonville Center
Sun 03:56:23 PM 28.6567 -83.2144 160° South 460 529 37,000  Level Jacksonville Center
Sun 04:02:04 PM 27.9580 -82.9009 160° South 467 537 37,000  Level FlightAware ADS-B
Sun 04:03:08 PM 27.8280 -82.8436 159° South 468 539 37,000  Level FlightAware ADS-B
Sun 04:03:46 PM 27.7514 -82.8099 159° South 466 536 37,000  Level FlightAware ADS-B
Sun 04:04:30 PM 27.6643 -82.7717 159° South 466 536 37,000  Level FlightAware ADS-B
Sun 04:05:06 PM 27.5908 -82.7395 159° South 467 537 37,000  Level FlightAware ADS-B
Sun 04:09:30 PM 27.0627 -82.6452 171° South 431 496 37,000  Level FlightAware ADS-B
Sun 04:11:32 PM 26.8537 -82.6365 178° South 430 495 37,000  Level FlightAware ADS-B
Sun 04:12:02 PM 26.7576 -82.6324 178° South 431 496 37,000  Level FlightAware ADS-B
Sun 04:13:00 PM 26.6398 -82.6276 178° South 433 498 37,000  Level FlightAware ADS-B
Sun 04:13:30 PM 26.5820 -82.6252 178° South 434 499 37,000  Level FlightAware ADS-B
Sun 04:14:05 PM 26.5142 -82.6223 178° South 435 501 37,000  Level FlightAware ADS-B
Sun 04:14:52 PM 26.4158 -82.6182 178° South 434 499 37,000  Level FlightAware ADS-B
Sun 04:15:31 PM 26.3365 -82.6148 178° South 435 501 37,000  Level FlightAware ADS-B
Sun 04:16:12 PM 26.2533 -82.6114 178° South 435 501 37,000  Level FlightAware ADS-B
Sun 04:18:52 PM 25.9339 -82.5980 178° South 437 503 37,000  Level FlightAware ADS-B
Sun 04:19:40 PM 25.8336 -82.5939 178° South 438 504 37,000  Level FlightAware ADS-B
Sun 04:20:23 PM 25.7473 -82.5902 178° South 439 505 37,000  Level FlightAware ADS-B
Sun 04:20:53 PM 25.6848 -82.5877 178° South 439 505 37,000  Level FlightAware ADS-B
Sun 04:21:02 PM 25.6758 -82.5914 178° South 438 504 37,000  Level Miami Center
Sun 04:21:40 PM 25.6035 -82.5844 178° South 440 506 37,000  Level FlightAware ADS-B
Sun 04:22:02 PM 25.5528 -82.5856 178° South 438 504 37,000  Level Miami Center
Sun 04:23:02 PM 25.4319 -82.5797 178° South 438 504 37,000 -275 Level Miami Center
Sun 04:26:02 PM 25.0672 -82.5650 176° South 438 504 35,900 -620 Descending Miami Center
Sun 04:28:02 PM 24.8214 -82.5558 178° South 443 510 33,900 -1,300 Descending Miami Center
Sun 04:31:02 PM 24.4772 -82.5422 176° South 433 498 29,400 -1,600 Descending Miami Center
Sun 04:33:02 PM 24.2522 -82.5322 178° South 415 478 25,900 -1,733 Descending Miami Center
Sun 04:34:02 PM 24.1439 -82.5272 178° South 401 461 24,200 -1,700 Descending Miami Center
Sun 04:35:02 PM 24.0375 -82.5269 180° South 396 456 22,500 -1,700 Descending Miami Center
Sun 04:37:00 PM 23.7983 -82.4999 173° South  Level Estimated
Sun 04:44:00 PM 22.9891 -82.4091 180° South  Level Estimated
Sun 04:45:00 PM 22.9891 -82.4091 180° South  Level Estimated
Sun 04:46:00 PM 22.9891 -82.4091 180° South  Level Estimated
Sun 04:47:00 PM 22.9891 -82.4091 180° South  Level Estimated
Sun 04:48:00 PM 22.9891 -82.4091 180° South  Level Estimated
Sun 04:49:00 PM 22.9891 -82.4091 180° South  Level Estimated
Sun 04:50:00 PM 22.9891 -82.4091 180° South  Level Estimated
Sun 04:51:00 PM 22.9891 -82.4091 180° South  Level Estimated
Sun 04:52:00 PM 22.9891 -82.4091 180° South  Level Estimated
Sun 04:53:00 PM 22.9891 -82.4091 180° South  Level Estimated
Sun 04:54:00 PM 22.9891 -82.4091 180° South  Level Estimated
Sun 04:55:00 PM 22.9891 -82.4091 180° South  Level Estimated
Sun 04:56:00 PM 22.9891 -82.4091 180° South  Level Estimated
Sun 04:57:00 PM 22.9891 -82.4091 180° South  Level Estimated
Sun 04:58:00 PM 22.9891 -82.4091 180° South  Level Estimated
Sun 04:59:00 PM 22.9891 -82.4091 180° South  Level Estimated
Sun 05:00:00 PM 22.9891 -82.4091 180° South  Level Estimated
Sun 05:01:00 PM 22.9891 -82.4091 180° South  Level Estimated
Sun 05:02:00 PM 22.9891 -82.4091 180° South  Level Estimated
Sun 05:03:00 PM 22.9891 -82.4091 180° South  Level Estimated
Sun 05:04:00 PM 22.9891 -82.4091 180° South  Level Estimated
Sun 05:05:00 PM 22.9891 -82.4091 180° South  Level Estimated
Sun 05:06:00 PM 22.9891 -82.4091 180° South  Level Estimated
Sun 05:07:00 PM 22.9891 -82.4091 180° South  Level Estimated
Sun 05:08:00 PM 22.9891 -82.4091 180° South  Level Estimated
Sun 05:09:00 PM 22.9891 -82.4091 180° South  Level Estimated
Sun 05:10:00 PM 22.9891 -82.4091 180° South  Level Estimated
Sun 05:11:00 PM 22.9891 -82.4091 180° South  Level Estimated
Sun 05:12:00 PM 22.9891 -82.4091 180° South  Level Estimated
Sun 05:13:00 PM 22.9891 -82.4091 180° South  Level Estimated
Sun 05:14:00 PM 22.9891 -82.4091 180° South  Level Estimated
Sun 05:15:00 PM 22.9891 -82.4091 180° South  Level Estimated

Login

Don't have an account? Register now (free) for customized features, flight alerts, and more!